If you wish to contribute or participate in the discussions about articles you are invited to join SKYbrary as a registered user

 Actions

Puerto Cabezas Airport

From SKYbrary Wiki

MNPC
Airport
ICAO: MNPC – IATA: PUZ
Summary
Name Puerto Cabezas Airport
Region South America and Caribbean
Territory Nicaragua NI.gif
Location Puerto Cabezas, North Caribbean Coast Autonomous Region
Serving Puerto Cabezas
Elevation 21.031 m
69 ft21.031 m
Coordinates 14° 2' 31.18" N, 83° 22' 49.94" W
Runways
Designator Length Width Surface ROPS
9/27 2478 m8,129.921 ft
51 m167.323 ft
ASP /


METAR
Observation MNPC 171300Z 31004KT 5000 DZ BKN016TCU 27/25 Q1012 TCURA E SE
Station Puerto Cabezas
Date/Time 17 September 2019 13:00:00
Wind direction 310°
Wind speed 04 kts
Lowest cloud amount broken clouds
Temperature 27°C
Dew point 25°C
Humidity 88%
QNH 1012 hPa
Weather condition n/a

Puerto Cabezas Airport is an airport that serves Puerto Cabezas, Nicaragua. Also known as Bilwi Airport.

Climatology

Tropical monsoon climate (Köppen climate classification Am)

Maps

Terrain

Loading map...

Airport Layout

Loading map...


Accidents & Serious Incidents at or in vicinity of MNPC

None on SKYbrary